sensor_id;sensor_type;location;lat;lon;timestamp;temperature;humidity
73572;DHT22;61854;48.510;-2.770;2024-02-26T00:02:06;8.80;99.90
73572;DHT22;61854;48.510;-2.770;2024-02-26T00:04:32;8.90;99.90
73572;DHT22;61854;48.510;-2.770;2024-02-26T00:06:58;8.90;99.90
73572;DHT22;61854;48.510;-2.770;2024-02-26T00:09:23;9.00;99.90
73572;DHT22;61854;48.510;-2.770;2024-02-26T00:11:49;8.90;99.90
73572;DHT22;61854;48.510;-2.770;2024-02-26T00:14:14;8.90;99.90
73572;DHT22;61854;48.510;-2.770;2024-02-26T00:16:40;8.90;99.90
73572;DHT22;61854;48.510;-2.770;2024-02-26T00:19:06;9.00;99.90
73572;DHT22;61854;48.510;-2.770;2024-02-26T00:21:32;8.90;99.90
73572;DHT22;61854;48.510;-2.770;2024-02-26T00:23:57;8.90;99.90
73572;DHT22;61854;48.510;-2.770;2024-02-26T00:26:23;8.90;99.90
73572;DHT22;61854;48.510;-2.770;2024-02-26T00:28:48;8.90;99.90
73572;DHT22;61854;48.510;-2.770;2024-02-26T00:31:14;9.00;99.90
73572;DHT22;61854;48.510;-2.770;2024-02-26T00:33:39;8.90;99.90
73572;DHT22;61854;48.510;-2.770;2024-02-26T00:36:05;9.00;99.90
73572;DHT22;61854;48.510;-2.770;2024-02-26T00:38:31;8.90;99.90
73572;DHT22;61854;48.510;-2.770;2024-02-26T00:40:56;9.00;99.90
73572;DHT22;61854;48.510;-2.770;2024-02-26T00:43:22;9.00;99.90
73572;DHT22;61854;48.510;-2.770;2024-02-26T00:45:47;9.00;99.90
73572;DHT22;61854;48.510;-2.770;2024-02-26T00:48:13;9.00;99.90
73572;DHT22;61854;48.510;-2.770;2024-02-26T00:50:39;9.00;99.90
73572;DHT22;61854;48.510;-2.770;2024-02-26T00:53:05;8.90;99.90
73572;DHT22;61854;48.510;-2.770;2024-02-26T00:55:30;8.90;99.90
73572;DHT22;61854;48.510;-2.770;2024-02-26T00:57:56;9.00;99.90
73572;DHT22;61854;48.510;-2.770;2024-02-26T01:00:21;9.00;99.90
73572;DHT22;61854;48.510;-2.770;2024-02-26T01:02:47;9.00;99.90
73572;DHT22;61854;48.510;-2.770;2024-02-26T01:05:13;9.00;99.90
73572;DHT22;61854;48.510;-2.770;2024-02-26T01:07:39;9.00;99.90
73572;DHT22;61854;48.510;-2.770;2024-02-26T01:10:05;9.00;99.90
73572;DHT22;61854;48.510;-2.770;2024-02-26T01:12:31;9.00;99.90
73572;DHT22;61854;48.510;-2.770;2024-02-26T01:14:57;9.00;99.90
73572;DHT22;61854;48.510;-2.770;2024-02-26T01:17:23;8.90;99.90
73572;DHT22;61854;48.510;-2.770;2024-02-26T01:19:48;8.90;99.90
73572;DHT22;61854;48.510;-2.770;2024-02-26T01:22:14;8.90;99.90
73572;DHT22;61854;48.510;-2.770;2024-02-26T01:24:39;8.90;99.90
73572;DHT22;61854;48.510;-2.770;2024-02-26T01:27:05;8.90;99.90
73572;DHT22;61854;48.510;-2.770;2024-02-26T01:29:31;8.90;99.90
73572;DHT22;61854;48.510;-2.770;2024-02-26T01:31:57;8.90;99.90
73572;DHT22;61854;48.510;-2.770;2024-02-26T01:34:22;8.90;99.90
73572;DHT22;61854;48.510;-2.770;2024-02-26T01:36:48;8.90;99.90
73572;DHT22;61854;48.510;-2.770;2024-02-26T01:39:14;8.90;99.90
73572;DHT22;61854;48.510;-2.770;2024-02-26T01:41:40;8.80;99.90
73572;DHT22;61854;48.510;-2.770;2024-02-26T01:44:05;8.80;99.90
73572;DHT22;61854;48.510;-2.770;2024-02-26T01:46:31;8.80;99.90
73572;DHT22;61854;48.510;-2.770;2024-02-26T01:48:58;8.80;99.90
73572;DHT22;61854;48.510;-2.770;2024-02-26T01:51:24;8.80;99.90
73572;DHT22;61854;48.510;-2.770;2024-02-26T01:53:50;8.80;99.90
73572;DHT22;61854;48.510;-2.770;2024-02-26T01:56:16;8.80;99.90
73572;DHT22;61854;48.510;-2.770;2024-02-26T01:58:42;8.70;99.90
73572;DHT22;61854;48.510;-2.770;2024-02-26T02:01:08;8.70;99.90
73572;DHT22;61854;48.510;-2.770;2024-02-26T02:03:35;8.80;99.90
73572;DHT22;61854;48.510;-2.770;2024-02-26T02:06:01;8.70;99.90
73572;DHT22;61854;48.510;-2.770;2024-02-26T02:08:27;8.70;99.90
73572;DHT22;61854;48.510;-2.770;2024-02-26T02:10:52;8.70;99.90
73572;DHT22;61854;48.510;-2.770;2024-02-26T02:13:18;8.70;99.90
73572;DHT22;61854;48.510;-2.770;2024-02-26T02:15:43;8.70;99.90
73572;DHT22;61854;48.510;-2.770;2024-02-26T02:18:09;8.70;99.90
73572;DHT22;61854;48.510;-2.770;2024-02-26T02:20:35;8.60;99.90
73572;DHT22;61854;48.510;-2.770;2024-02-26T02:23:01;8.70;99.90
73572;DHT22;61854;48.510;-2.770;2024-02-26T02:25:27;8.60;99.90
73572;DHT22;61854;48.510;-2.770;2024-02-26T02:27:55;8.60;99.90
73572;DHT22;61854;48.510;-2.770;2024-02-26T02:30:23;8.50;99.90
73572;DHT22;61854;48.510;-2.770;2024-02-26T02:32:50;8.50;99.90
73572;DHT22;61854;48.510;-2.770;2024-02-26T02:35:16;8.60;99.90
73572;DHT22;61854;48.510;-2.770;2024-02-26T02:37:41;8.50;99.90
73572;DHT22;61854;48.510;-2.770;2024-02-26T02:40:07;8.40;99.90
73572;DHT22;61854;48.510;-2.770;2024-02-26T02:42:32;8.40;99.90
73572;DHT22;61854;48.510;-2.770;2024-02-26T02:44:58;8.30;99.90
73572;DHT22;61854;48.510;-2.770;2024-02-26T02:47:23;8.20;99.90
73572;DHT22;61854;48.510;-2.770;2024-02-26T02:49:49;8.20;99.90
73572;DHT22;61854;48.510;-2.770;2024-02-26T02:52:14;8.10;99.90
73572;DHT22;61854;48.510;-2.770;2024-02-26T02:54:40;8.10;99.90
73572;DHT22;61854;48.510;-2.770;2024-02-26T02:57:07;8.10;99.90
73572;DHT22;61854;48.510;-2.770;2024-02-26T02:59:33;8.10;99.90
73572;DHT22;61854;48.510;-2.770;2024-02-26T03:01:58;8.10;99.90
73572;DHT22;61854;48.510;-2.770;2024-02-26T03:04:24;8.20;99.90
73572;DHT22;61854;48.510;-2.770;2024-02-26T03:06:50;8.10;99.90
73572;DHT22;61854;48.510;-2.770;2024-02-26T03:09:15;8.10;99.90
73572;DHT22;61854;48.510;-2.770;2024-02-26T03:11:41;8.10;99.90
73572;DHT22;61854;48.510;-2.770;2024-02-26T03:14:06;8.10;99.90
73572;DHT22;61854;48.510;-2.770;2024-02-26T03:16:32;8.10;99.90
73572;DHT22;61854;48.510;-2.770;2024-02-26T03:18:58;8.10;99.90
73572;DHT22;61854;48.510;-2.770;2024-02-26T03:21:24;8.10;99.90
73572;DHT22;61854;48.510;-2.770;2024-02-26T03:23:50;8.10;99.90
73572;DHT22;61854;48.510;-2.770;2024-02-26T03:26:15;8.00;99.90
73572;DHT22;61854;48.510;-2.770;2024-02-26T03:28:41;8.00;99.90
73572;DHT22;61854;48.510;-2.770;2024-02-26T03:31:06;8.00;99.90
73572;DHT22;61854;48.510;-2.770;2024-02-26T03:33:32;8.00;99.90
73572;DHT22;61854;48.510;-2.770;2024-02-26T03:35:57;8.00;99.90
73572;DHT22;61854;48.510;-2.770;2024-02-26T03:38:23;8.00;99.90
73572;DHT22;61854;48.510;-2.770;2024-02-26T03:40:49;8.10;99.90
73572;DHT22;61854;48.510;-2.770;2024-02-26T03:43:14;8.00;99.90
73572;DHT22;61854;48.510;-2.770;2024-02-26T03:45:40;8.10;99.90
73572;DHT22;61854;48.510;-2.770;2024-02-26T03:48:05;8.10;99.90
73572;DHT22;61854;48.510;-2.770;2024-02-26T03:50:31;8.00;99.90
73572;DHT22;61854;48.510;-2.770;2024-02-26T03:52:57;8.00;99.90
73572;DHT22;61854;48.510;-2.770;2024-02-26T03:55:23;8.00;99.90
73572;DHT22;61854;48.510;-2.770;2024-02-26T03:57:53;7.90;99.90
73572;DHT22;61854;48.510;-2.770;2024-02-26T04:00:18;7.90;99.90
73572;DHT22;61854;48.510;-2.770;2024-02-26T04:02:44;7.90;99.90
73572;DHT22;61854;48.510;-2.770;2024-02-26T04:05:10;7.70;99.90
73572;DHT22;61854;48.510;-2.770;2024-02-26T04:07:36;7.80;99.90
73572;DHT22;61854;48.510;-2.770;2024-02-26T04:10:01;7.80;99.90
73572;DHT22;61854;48.510;-2.770;2024-02-26T04:12:30;7.70;99.90
73572;DHT22;61854;48.510;-2.770;2024-02-26T04:14:55;7.70;99.90
73572;DHT22;61854;48.510;-2.770;2024-02-26T04:17:21;7.70;99.90
73572;DHT22;61854;48.510;-2.770;2024-02-26T04:19:47;7.70;99.90
73572;DHT22;61854;48.510;-2.770;2024-02-26T04:22:12;7.70;99.90
73572;DHT22;61854;48.510;-2.770;2024-02-26T04:24:38;7.80;99.90
73572;DHT22;61854;48.510;-2.770;2024-02-26T04:27:03;7.80;99.90
73572;DHT22;61854;48.510;-2.770;2024-02-26T04:29:29;7.70;99.90
73572;DHT22;61854;48.510;-2.770;2024-02-26T04:31:54;7.70;99.90
73572;DHT22;61854;48.510;-2.770;2024-02-26T04:34:20;7.70;99.90
73572;DHT22;61854;48.510;-2.770;2024-02-26T04:36:45;7.70;99.90
73572;DHT22;61854;48.510;-2.770;2024-02-26T04:39:13;7.70;99.90
73572;DHT22;61854;48.510;-2.770;2024-02-26T04:41:39;7.80;99.90
73572;DHT22;61854;48.510;-2.770;2024-02-26T04:44:04;7.70;99.90
73572;DHT22;61854;48.510;-2.770;2024-02-26T04:46:30;7.70;99.90
73572;DHT22;61854;48.510;-2.770;2024-02-26T04:48:56;7.70;99.90
73572;DHT22;61854;48.510;-2.770;2024-02-26T04:51:21;7.70;99.90
73572;DHT22;61854;48.510;-2.770;2024-02-26T04:53:47;7.70;99.90
73572;DHT22;61854;48.510;-2.770;2024-02-26T04:56:12;7.60;99.90
73572;DHT22;61854;48.510;-2.770;2024-02-26T04:58:38;7.60;99.90
73572;DHT22;61854;48.510;-2.770;2024-02-26T05:01:05;7.70;99.90
73572;DHT22;61854;48.510;-2.770;2024-02-26T05:03:30;7.70;99.90
73572;DHT22;61854;48.510;-2.770;2024-02-26T05:05:56;7.60;99.90
73572;DHT22;61854;48.510;-2.770;2024-02-26T05:08:23;7.70;99.90
73572;DHT22;61854;48.510;-2.770;2024-02-26T05:10:48;7.70;99.90
73572;DHT22;61854;48.510;-2.770;2024-02-26T05:13:14;7.70;99.90
73572;DHT22;61854;48.510;-2.770;2024-02-26T05:15:41;7.70;99.90
73572;DHT22;61854;48.510;-2.770;2024-02-26T05:18:07;7.70;99.90
73572;DHT22;61854;48.510;-2.770;2024-02-26T05:20:33;7.80;99.90
73572;DHT22;61854;48.510;-2.770;2024-02-26T05:23:00;7.80;99.90
73572;DHT22;61854;48.510;-2.770;2024-02-26T05:25:26;7.80;99.90
73572;DHT22;61854;48.510;-2.770;2024-02-26T05:27:51;7.70;99.90
73572;DHT22;61854;48.510;-2.770;2024-02-26T05:30:17;7.80;99.90
73572;DHT22;61854;48.510;-2.770;2024-02-26T05:32:42;7.70;99.90
73572;DHT22;61854;48.510;-2.770;2024-02-26T05:35:08;7.70;99.90
73572;DHT22;61854;48.510;-2.770;2024-02-26T05:37:34;7.80;99.90
73572;DHT22;61854;48.510;-2.770;2024-02-26T05:39:59;7.80;99.90
73572;DHT22;61854;48.510;-2.770;2024-02-26T05:42:25;7.70;99.90
73572;DHT22;61854;48.510;-2.770;2024-02-26T05:44:50;7.60;99.90
73572;DHT22;61854;48.510;-2.770;2024-02-26T05:47:18;7.60;99.90
73572;DHT22;61854;48.510;-2.770;2024-02-26T05:49:44;7.60;99.90
73572;DHT22;61854;48.510;-2.770;2024-02-26T05:52:09;7.60;99.90
73572;DHT22;61854;48.510;-2.770;2024-02-26T05:54:35;7.70;99.90
73572;DHT22;61854;48.510;-2.770;2024-02-26T05:57:01;7.70;99.90
73572;DHT22;61854;48.510;-2.770;2024-02-26T05:59:26;7.70;99.90
73572;DHT22;61854;48.510;-2.770;2024-02-26T06:01:52;7.70;99.90
73572;DHT22;61854;48.510;-2.770;2024-02-26T06:04:17;7.70;99.90
73572;DHT22;61854;48.510;-2.770;2024-02-26T06:06:46;7.70;99.90
73572;DHT22;61854;48.510;-2.770;2024-02-26T06:09:11;7.70;99.90
73572;DHT22;61854;48.510;-2.770;2024-02-26T06:11:37;7.70;99.90
73572;DHT22;61854;48.510;-2.770;2024-02-26T06:14:02;7.70;99.90
73572;DHT22;61854;48.510;-2.770;2024-02-26T06:16:28;7.80;99.90
73572;DHT22;61854;48.510;-2.770;2024-02-26T06:18:53;7.80;99.90
73572;DHT22;61854;48.510;-2.770;2024-02-26T06:21:19;7.80;99.90
73572;DHT22;61854;48.510;-2.770;2024-02-26T06:23:44;7.70;99.90
73572;DHT22;61854;48.510;-2.770;2024-02-26T06:26:10;7.70;99.90
73572;DHT22;61854;48.510;-2.770;2024-02-26T06:28:36;7.70;99.90
73572;DHT22;61854;48.510;-2.770;2024-02-26T06:31:02;7.70;99.90
73572;DHT22;61854;48.510;-2.770;2024-02-26T06:33:28;7.70;99.90
73572;DHT22;61854;48.510;-2.770;2024-02-26T06:35:53;7.70;99.90
73572;DHT22;61854;48.510;-2.770;2024-02-26T06:38:19;7.70;99.90
73572;DHT22;61854;48.510;-2.770;2024-02-26T06:40:44;7.70;99.90
73572;DHT22;61854;48.510;-2.770;2024-02-26T06:43:10;7.70;99.90
73572;DHT22;61854;48.510;-2.770;2024-02-26T06:45:35;7.70;99.90
73572;DHT22;61854;48.510;-2.770;2024-02-26T06:48:01;7.70;99.90
73572;DHT22;61854;48.510;-2.770;2024-02-26T06:50:27;7.70;99.90
73572;DHT22;61854;48.510;-2.770;2024-02-26T06:52:53;7.70;99.90
73572;DHT22;61854;48.510;-2.770;2024-02-26T06:55:19;7.70;99.90
73572;DHT22;61854;48.510;-2.770;2024-02-26T06:57:44;7.60;99.90
73572;DHT22;61854;48.510;-2.770;2024-02-26T07:00:10;7.70;99.90
73572;DHT22;61854;48.510;-2.770;2024-02-26T07:02:42;7.70;99.90
73572;DHT22;61854;48.510;-2.770;2024-02-26T07:05:07;7.70;99.90
73572;DHT22;61854;48.510;-2.770;2024-02-26T07:07:33;7.70;99.90
73572;DHT22;61854;48.510;-2.770;2024-02-26T07:09:58;7.60;99.90
73572;DHT22;61854;48.510;-2.770;2024-02-26T07:12:24;7.70;99.90
73572;DHT22;61854;48.510;-2.770;2024-02-26T07:14:49;7.70;99.90
73572;DHT22;61854;48.510;-2.770;2024-02-26T07:17:15;7.70;99.90
73572;DHT22;61854;48.510;-2.770;2024-02-26T07:19:41;7.60;99.90
73572;DHT22;61854;48.510;-2.770;2024-02-26T07:22:07;7.70;99.90
73572;DHT22;61854;48.510;-2.770;2024-02-26T07:24:33;7.70;99.90
73572;DHT22;61854;48.510;-2.770;2024-02-26T07:26:58;7.70;99.90
73572;DHT22;61854;48.510;-2.770;2024-02-26T07:29:27;7.70;99.90
73572;DHT22;61854;48.510;-2.770;2024-02-26T07:31:53;7.70;99.90
73572;DHT22;61854;48.510;-2.770;2024-02-26T07:34:18;7.70;99.90
73572;DHT22;61854;48.510;-2.770;2024-02-26T07:36:44;7.80;99.90
73572;DHT22;61854;48.510;-2.770;2024-02-26T07:39:10;7.80;99.90
73572;DHT22;61854;48.510;-2.770;2024-02-26T07:41:35;7.80;99.90
73572;DHT22;61854;48.510;-2.770;2024-02-26T07:44:01;7.70;99.90
73572;DHT22;61854;48.510;-2.770;2024-02-26T07:46:26;7.70;99.90
73572;DHT22;61854;48.510;-2.770;2024-02-26T07:48:55;7.70;99.90
73572;DHT22;61854;48.510;-2.770;2024-02-26T07:51:20;7.70;99.90
73572;DHT22;61854;48.510;-2.770;2024-02-26T07:53:47;7.70;99.90
73572;DHT22;61854;48.510;-2.770;2024-02-26T07:56:13;7.70;99.90
73572;DHT22;61854;48.510;-2.770;2024-02-26T07:58:38;7.70;99.90
73572;DHT22;61854;48.510;-2.770;2024-02-26T08:01:04;7.70;99.90
73572;DHT22;61854;48.510;-2.770;2024-02-26T08:03:29;7.70;99.90
73572;DHT22;61854;48.510;-2.770;2024-02-26T08:05:58;7.70;99.90
73572;DHT22;61854;48.510;-2.770;2024-02-26T08:08:24;7.70;99.90
73572;DHT22;61854;48.510;-2.770;2024-02-26T08:10:49;7.70;99.90
73572;DHT22;61854;48.510;-2.770;2024-02-26T08:13:15;7.70;99.90
73572;DHT22;61854;48.510;-2.770;2024-02-26T08:15:40;7.70;99.90
73572;DHT22;61854;48.510;-2.770;2024-02-26T08:18:06;7.70;99.90
73572;DHT22;61854;48.510;-2.770;2024-02-26T08:20:32;7.70;99.90
73572;DHT22;61854;48.510;-2.770;2024-02-26T08:22:58;7.70;99.90
73572;DHT22;61854;48.510;-2.770;2024-02-26T08:25:24;7.70;99.90
73572;DHT22;61854;48.510;-2.770;2024-02-26T08:27:50;7.60;99.90
73572;DHT22;61854;48.510;-2.770;2024-02-26T08:30:16;7.70;99.90
73572;DHT22;61854;48.510;-2.770;2024-02-26T08:32:42;7.70;99.90
73572;DHT22;61854;48.510;-2.770;2024-02-26T08:35:11;7.70;99.90
73572;DHT22;61854;48.510;-2.770;2024-02-26T08:37:36;7.70;99.90
73572;DHT22;61854;48.510;-2.770;2024-02-26T08:40:02;7.70;99.90
73572;DHT22;61854;48.510;-2.770;2024-02-26T08:42:29;7.70;99.90
73572;DHT22;61854;48.510;-2.770;2024-02-26T08:44:55;7.70;99.90
73572;DHT22;61854;48.510;-2.770;2024-02-26T08:47:20;7.70;99.90
73572;DHT22;61854;48.510;-2.770;2024-02-26T08:49:46;7.70;99.90
73572;DHT22;61854;48.510;-2.770;2024-02-26T08:52:11;7.70;99.90
73572;DHT22;61854;48.510;-2.770;2024-02-26T08:54:37;7.70;99.90
73572;DHT22;61854;48.510;-2.770;2024-02-26T08:57:03;7.70;99.90
73572;DHT22;61854;48.510;-2.770;2024-02-26T08:59:29;7.70;99.90
73572;DHT22;61854;48.510;-2.770;2024-02-26T09:01:55;7.70;99.90
73572;DHT22;61854;48.510;-2.770;2024-02-26T09:04:20;7.70;99.90
73572;DHT22;61854;48.510;-2.770;2024-02-26T09:06:46;7.70;99.90
73572;DHT22;61854;48.510;-2.770;2024-02-26T09:09:12;7.70;99.90
73572;DHT22;61854;48.510;-2.770;2024-02-26T09:11:38;7.70;99.90
73572;DHT22;61854;48.510;-2.770;2024-02-26T09:14:06;7.70;99.90
73572;DHT22;61854;48.510;-2.770;2024-02-26T09:16:41;7.70;99.90
73572;DHT22;61854;48.510;-2.770;2024-02-26T09:19:06;7.70;99.90
73572;DHT22;61854;48.510;-2.770;2024-02-26T09:21:32;7.70;99.90
73572;DHT22;61854;48.510;-2.770;2024-02-26T09:23:57;7.70;99.90
73572;DHT22;61854;48.510;-2.770;2024-02-26T09:26:23;7.80;99.90
73572;DHT22;61854;48.510;-2.770;2024-02-26T09:28:48;7.80;99.90
73572;DHT22;61854;48.510;-2.770;2024-02-26T09:31:15;7.80;99.90
73572;DHT22;61854;48.510;-2.770;2024-02-26T09:33:42;7.70;99.90
73572;DHT22;61854;48.510;-2.770;2024-02-26T09:36:07;7.70;99.90
73572;DHT22;61854;48.510;-2.770;2024-02-26T09:38:34;7.70;99.90
73572;DHT22;61854;48.510;-2.770;2024-02-26T09:41:03;7.70;99.90
73572;DHT22;61854;48.510;-2.770;2024-02-26T09:43:33;7.70;99.90
73572;DHT22;61854;48.510;-2.770;2024-02-26T09:45:59;7.80;99.90
73572;DHT22;61854;48.510;-2.770;2024-02-26T09:48:25;7.90;99.90
73572;DHT22;61854;48.510;-2.770;2024-02-26T09:50:50;7.80;99.90
73572;DHT22;61854;48.510;-2.770;2024-02-26T09:53:16;7.80;99.90
73572;DHT22;61854;48.510;-2.770;2024-02-26T09:55:42;7.80;99.90
73572;DHT22;61854;48.510;-2.770;2024-02-26T09:58:08;7.80;99.90
73572;DHT22;61854;48.510;-2.770;2024-02-26T10:00:37;7.80;99.90
73572;DHT22;61854;48.510;-2.770;2024-02-26T10:03:11;7.80;99.90
73572;DHT22;61854;48.510;-2.770;2024-02-26T10:05:38;7.80;99.90
73572;DHT22;61854;48.510;-2.770;2024-02-26T10:08:05;7.90;99.90
73572;DHT22;61854;48.510;-2.770;2024-02-26T10:10:31;7.80;99.90
73572;DHT22;61854;48.510;-2.770;2024-02-26T10:12:59;7.90;99.90
73572;DHT22;61854;48.510;-2.770;2024-02-26T10:15:24;7.90;99.90
73572;DHT22;61854;48.510;-2.770;2024-02-26T10:17:50;7.90;99.90
73572;DHT22;61854;48.510;-2.770;2024-02-26T10:20:17;7.90;99.90
73572;DHT22;61854;48.510;-2.770;2024-02-26T10:22:52;7.90;99.90
73572;DHT22;61854;48.510;-2.770;2024-02-26T10:25:21;8.00;99.90
73572;DHT22;61854;48.510;-2.770;2024-02-26T10:27:46;8.10;99.90
73572;DHT22;61854;48.510;-2.770;2024-02-26T10:30:16;8.10;99.90
73572;DHT22;61854;48.510;-2.770;2024-02-26T10:32:43;8.10;99.90
73572;DHT22;61854;48.510;-2.770;2024-02-26T10:35:08;8.10;99.90
73572;DHT22;61854;48.510;-2.770;2024-02-26T10:37:34;8.10;99.90
73572;DHT22;61854;48.510;-2.770;2024-02-26T10:39:59;8.30;99.90
73572;DHT22;61854;48.510;-2.770;2024-02-26T10:42:25;8.20;99.90
73572;DHT22;61854;48.510;-2.770;2024-02-26T10:44:51;8.30;99.90
73572;DHT22;61854;48.510;-2.770;2024-02-26T10:47:16;8.40;99.90
73572;DHT22;61854;48.510;-2.770;2024-02-26T10:49:48;8.30;99.90
73572;DHT22;61854;48.510;-2.770;2024-02-26T10:52:14;8.30;99.90
73572;DHT22;61854;48.510;-2.770;2024-02-26T10:54:41;8.20;99.90
73572;DHT22;61854;48.510;-2.770;2024-02-26T10:57:09;8.10;99.90
73572;DHT22;61854;48.510;-2.770;2024-02-26T10:59:34;8.10;99.90
73572;DHT22;61854;48.510;-2.770;2024-02-26T11:02:00;8.20;99.90
73572;DHT22;61854;48.510;-2.770;2024-02-26T11:04:26;8.10;99.90
73572;DHT22;61854;48.510;-2.770;2024-02-26T11:06:52;8.20;99.90
73572;DHT22;61854;48.510;-2.770;2024-02-26T11:09:21;8.20;99.90
73572;DHT22;61854;48.510;-2.770;2024-02-26T11:11:47;8.20;99.90
73572;DHT22;61854;48.510;-2.770;2024-02-26T11:14:13;8.20;99.90
73572;DHT22;61854;48.510;-2.770;2024-02-26T11:16:39;8.20;99.90
73572;DHT22;61854;48.510;-2.770;2024-02-26T11:19:06;8.20;99.90
73572;DHT22;61854;48.510;-2.770;2024-02-26T11:21:34;8.30;99.90
73572;DHT22;61854;48.510;-2.770;2024-02-26T11:24:07;8.20;99.90
73572;DHT22;61854;48.510;-2.770;2024-02-26T11:26:34;8.30;99.90
73572;DHT22;61854;48.510;-2.770;2024-02-26T11:29:02;8.30;99.90
73572;DHT22;61854;48.510;-2.770;2024-02-26T11:31:28;8.40;99.90
73572;DHT22;61854;48.510;-2.770;2024-02-26T11:33:54;8.40;99.90
73572;DHT22;61854;48.510;-2.770;2024-02-26T11:36:21;8.30;99.90
73572;DHT22;61854;48.510;-2.770;2024-02-26T11:38:48;8.40;99.90
73572;DHT22;61854;48.510;-2.770;2024-02-26T11:41:16;8.30;99.90
73572;DHT22;61854;48.510;-2.770;2024-02-26T11:46:30;8.20;99.90
73572;DHT22;61854;48.510;-2.770;2024-02-26T11:48:56;8.30;99.90
73572;DHT22;61854;48.510;-2.770;2024-02-26T11:51:26;8.20;99.90
73572;DHT22;61854;48.510;-2.770;2024-02-26T11:53:53;8.20;99.90
73572;DHT22;61854;48.510;-2.770;2024-02-26T12:01:42;8.40;99.90
73572;DHT22;61854;48.510;-2.770;2024-02-26T12:04:18;8.40;99.90
73572;DHT22;61854;48.510;-2.770;2024-02-26T12:06:51;8.30;99.90
73572;DHT22;61854;48.510;-2.770;2024-02-26T12:12:05;8.20;99.90
73572;DHT22;61854;48.510;-2.770;2024-02-26T12:14:50;8.10;99.90
73572;DHT22;61854;48.510;-2.770;2024-02-26T12:17:20;8.20;99.90
73572;DHT22;61854;48.510;-2.770;2024-02-26T12:19:46;8.20;99.90
73572;DHT22;61854;48.510;-2.770;2024-02-26T12:22:14;8.20;99.90
73572;DHT22;61854;48.510;-2.770;2024-02-26T12:24:41;8.30;99.90
73572;DHT22;61854;48.510;-2.770;2024-02-26T12:27:06;8.30;99.90
73572;DHT22;61854;48.510;-2.770;2024-02-26T12:29:32;8.30;99.90
73572;DHT22;61854;48.510;-2.770;2024-02-26T12:31:58;8.40;99.90
73572;DHT22;61854;48.510;-2.770;2024-02-26T12:34:24;8.40;99.90
73572;DHT22;61854;48.510;-2.770;2024-02-26T12:36:50;8.50;99.90
73572;DHT22;61854;48.510;-2.770;2024-02-26T12:39:16;8.40;99.90
73572;DHT22;61854;48.510;-2.770;2024-02-26T12:41:41;8.40;99.90
73572;DHT22;61854;48.510;-2.770;2024-02-26T12:44:11;8.40;99.90
73572;DHT22;61854;48.510;-2.770;2024-02-26T12:46:37;8.40;99.90
73572;DHT22;61854;48.510;-2.770;2024-02-26T12:49:02;8.40;99.90
73572;DHT22;61854;48.510;-2.770;2024-02-26T12:51:28;8.50;99.90
73572;DHT22;61854;48.510;-2.770;2024-02-26T12:53:55;8.40;99.90
73572;DHT22;61854;48.510;-2.770;2024-02-26T12:56:21;8.40;99.90
73572;DHT22;61854;48.510;-2.770;2024-02-26T12:58:47;8.40;99.90
73572;DHT22;61854;48.510;-2.770;2024-02-26T13:01:16;8.40;99.90
73572;DHT22;61854;48.510;-2.770;2024-02-26T13:03:43;8.50;99.90
73572;DHT22;61854;48.510;-2.770;2024-02-26T13:06:09;8.30;99.90
73572;DHT22;61854;48.510;-2.770;2024-02-26T13:08:34;8.20;99.90
73572;DHT22;61854;48.510;-2.770;2024-02-26T13:11:00;8.40;99.90
73572;DHT22;61854;48.510;-2.770;2024-02-26T13:13:26;8.30;99.90
73572;DHT22;61854;48.510;-2.770;2024-02-26T13:16:04;8.20;99.90
73572;DHT22;61854;48.510;-2.770;2024-02-26T13:18:31;8.10;99.90
73572;DHT22;61854;48.510;-2.770;2024-02-26T13:21:32;8.20;99.90
73572;DHT22;61854;48.510;-2.770;2024-02-26T13:23:52;8.20;99.90
73572;DHT22;61854;48.510;-2.770;2024-02-26T13:26:18;8.20;99.90
73572;DHT22;61854;48.510;-2.770;2024-02-26T13:28:47;8.20;99.90
73572;DHT22;61854;48.510;-2.770;2024-02-26T13:31:12;8.20;99.90
73572;DHT22;61854;48.510;-2.770;2024-02-26T13:33:38;8.30;99.90
73572;DHT22;61854;48.510;-2.770;2024-02-26T13:36:03;8.20;99.90
73572;DHT22;61854;48.510;-2.770;2024-02-26T13:38:29;8.30;99.90
73572;DHT22;61854;48.510;-2.770;2024-02-26T13:40:54;8.30;99.90
73572;DHT22;61854;48.510;-2.770;2024-02-26T13:43:20;8.30;99.90
73572;DHT22;61854;48.510;-2.770;2024-02-26T13:45:46;8.30;99.90
73572;DHT22;61854;48.510;-2.770;2024-02-26T13:48:12;8.30;99.90
73572;DHT22;61854;48.510;-2.770;2024-02-26T13:50:38;8.30;99.90
73572;DHT22;61854;48.510;-2.770;2024-02-26T13:53:04;8.40;99.90
73572;DHT22;61854;48.510;-2.770;2024-02-26T13:55:30;8.30;99.90
73572;DHT22;61854;48.510;-2.770;2024-02-26T13:57:59;8.30;99.90
73572;DHT22;61854;48.510;-2.770;2024-02-26T14:00:29;8.40;99.90
73572;DHT22;61854;48.510;-2.770;2024-02-26T14:02:57;8.40;99.90
73572;DHT22;61854;48.510;-2.770;2024-02-26T14:05:23;8.40;99.90
73572;DHT22;61854;48.510;-2.770;2024-02-26T14:07:48;8.40;99.90
73572;DHT22;61854;48.510;-2.770;2024-02-26T14:10:14;8.40;99.90
73572;DHT22;61854;48.510;-2.770;2024-02-26T14:12:41;8.40;99.90
73572;DHT22;61854;48.510;-2.770;2024-02-26T14:15:07;8.40;99.90
73572;DHT22;61854;48.510;-2.770;2024-02-26T14:17:33;8.30;99.90
73572;DHT22;61854;48.510;-2.770;2024-02-26T14:19:58;8.30;99.90
73572;DHT22;61854;48.510;-2.770;2024-02-26T14:22:24;8.40;99.90
73572;DHT22;61854;48.510;-2.770;2024-02-26T14:24:56;8.40;99.90
73572;DHT22;61854;48.510;-2.770;2024-02-26T14:27:22;8.30;99.90
73572;DHT22;61854;48.510;-2.770;2024-02-26T14:29:48;8.30;99.90
73572;DHT22;61854;48.510;-2.770;2024-02-26T14:32:13;8.30;99.90
73572;DHT22;61854;48.510;-2.770;2024-02-26T14:34:39;8.30;99.90
73572;DHT22;61854;48.510;-2.770;2024-02-26T14:37:04;8.50;99.90
73572;DHT22;61854;48.510;-2.770;2024-02-26T14:39:33;8.40;99.90
73572;DHT22;61854;48.510;-2.770;2024-02-26T14:41:59;8.30;99.90
73572;DHT22;61854;48.510;-2.770;2024-02-26T14:44:25;8.40;99.90
73572;DHT22;61854;48.510;-2.770;2024-02-26T14:46:51;8.40;99.90
73572;DHT22;61854;48.510;-2.770;2024-02-26T14:49:17;8.30;99.90
73572;DHT22;61854;48.510;-2.770;2024-02-26T14:51:42;8.40;99.90
73572;DHT22;61854;48.510;-2.770;2024-02-26T14:54:10;8.40;99.90
73572;DHT22;61854;48.510;-2.770;2024-02-26T14:56:36;8.40;99.90
73572;DHT22;61854;48.510;-2.770;2024-02-26T14:59:02;8.40;99.90
73572;DHT22;61854;48.510;-2.770;2024-02-26T15:01:28;8.40;99.90
73572;DHT22;61854;48.510;-2.770;2024-02-26T15:03:53;8.40;99.90
73572;DHT22;61854;48.510;-2.770;2024-02-26T15:06:19;8.40;99.90
73572;DHT22;61854;48.510;-2.770;2024-02-26T15:08:44;8.40;99.90
73572;DHT22;61854;48.510;-2.770;2024-02-26T15:11:10;8.40;99.90
73572;DHT22;61854;48.510;-2.770;2024-02-26T15:13:35;8.50;99.90
73572;DHT22;61854;48.510;-2.770;2024-02-26T15:16:01;8.50;99.90
73572;DHT22;61854;48.510;-2.770;2024-02-26T15:18:26;8.50;99.90
73572;DHT22;61854;48.510;-2.770;2024-02-26T15:20:52;8.50;99.90
73572;DHT22;61854;48.510;-2.770;2024-02-26T15:23:18;8.70;99.90
73572;DHT22;61854;48.510;-2.770;2024-02-26T15:25:43;8.70;99.90
73572;DHT22;61854;48.510;-2.770;2024-02-26T15:28:09;8.60;99.90
73572;DHT22;61854;48.510;-2.770;2024-02-26T15:30:39;8.70;99.90
73572;DHT22;61854;48.510;-2.770;2024-02-26T15:33:05;8.60;99.90
73572;DHT22;61854;48.510;-2.770;2024-02-26T15:35:30;8.50;99.90